Ship Status Report: callsign WZW5960

sailwx.info

Track history (hours):
 
Tides and Currents Weather Stations Pressure Air Temp Water Temp Dewpoint Dewpoint Depression Visibility Wind Speed Wind Dir Waves Ship Positions

Callsign WZW5960 (name unknown)

Owner: NORFOLK DREDGING CO, CHESAPEAKE, VA. More information available from US FCC via Universal Licensing System and Coast Guard Vessel Documentation Center.

Last reported at 2018-Apr-26 12:53 UTC. Time now 2018-Apr-26 23:01 UTC.
Position N 36°55' W 076°21'.

Length 20 m; draft 3 m.

Type: Tug. MMSI: 367473160.

Date/timePositionNaut miles runAvg speedWind from/ knotsBaromVisibWave heightAir tempDewpointWater temp
2018-Apr-26 12:53N 36°55' W 076°21'1 1.6
2018-Apr-26 12:31N 36°55' W 076°21'0 0.0
2018-Apr-26 12:01N 36°55' W 076°21'0 0.0
2018-Apr-26 11:25N 36°55' W 076°21'0 0.0
2018-Apr-26 10:59N 36°55' W 076°21'0 0.0
2018-Apr-25 21:54N 36°55' W 076°21'0 0.0
2018-Apr-25 21:02N 36°55' W 076°21'0 0.0
2018-Apr-25 20:59N 36°55' W 076°21'0 0.0
2018-Apr-25 20:29N 36°55' W 076°21'0 0.1
2018-Apr-25 16:10N 36°54' W 076°21'0 0.0
2018-Apr-25 16:00N 36°54' W 076°21'1 0.2
2018-Apr-25 11:21N 36°53' W 076°20'1 2.8
2018-Apr-25 10:58N 36°52' W 076°20'0 0.1
2018-Apr-25 10:30N 36°52' W 076°20'0 0.0
2018-Apr-24 19:32N 36°52' W 076°20'0 0.2
2018-Apr-24 19:29N 36°52' W 076°20'0 0.0
2018-Apr-24 19:00N 36°52' W 076°20'0 0.0
2018-Apr-24 18:29N 36°52' W 076°20'0 0.0
2018-Apr-24 17:56N 36°52' W 076°20'0 0.0
2018-Apr-24 17:17N 36°52' W 076°20'0 0.0
2018-Apr-24 17:00N 36°52' W 076°20'0 0.0
2018-Apr-24 16:30N 36°52' W 076°20'0 0.0
2018-Apr-24 16:00N 36°52' W 076°20'0 0.0
2018-Apr-24 15:30N 36°52' W 076°20'0 0.0
2018-Apr-24 15:00N 36°52' W 076°20'0 0.0
2018-Apr-24 14:28N 36°52' W 076°20'0 0.1
2018-Apr-24 13:57N 36°52' W 076°20'0 0.0
2018-Apr-24 13:30N 36°52' W 076°20'0 0.1
2018-Apr-24 12:59N 36°52' W 076°20'0 0.1
2018-Apr-24 12:30N 36°52' W 076°20'0 0.0
2018-Apr-24 12:00N 36°52' W 076°20'0 0.0
2018-Apr-24 11:30N 36°52' W 076°20'0 0.0
2018-Apr-24 10:37N 36°52' W 076°20'1 0.0
2018-Apr-23 19:06N 36°52' W 076°20'1 6.0
2018-Apr-23 18:56N 36°51' W 076°19'2 2.1
2018-Apr-23 18:02N 36°50' W 076°17'0 0.1
2018-Apr-23 12:45N 36°51' W 076°17'3 0.2
2018-Apr-22 20:34N 36°52' W 076°20'0 0.1
2018-Apr-22 20:12N 36°52' W 076°20'0 0.1
2018-Apr-22 20:00N 36°52' W 076°20'0 0.0
2018-Apr-22 18:19N 36°52' W 076°20'0 0.0
2018-Apr-22 18:00N 36°52' W 076°20'0 0.0
2018-Apr-22 17:25N 36°52' W 076°20'0 0.0
2018-Apr-22 17:00N 36°52' W 076°20'0 0.0
2018-Apr-22 16:30N 36°52' W 076°20'0 0.0
2018-Apr-22 16:00N 36°52' W 076°20'1 2.6
2018-Apr-22 15:28N 36°52' W 076°19'1 1.3
2018-Apr-22 14:24N 36°52' W 076°20'0 0.0
2018-Apr-22 11:59N 36°52' W 076°20'0 0.0
2018-Apr-22 11:20N 36°52' W 076°20'0 0.3
2018-Apr-22 10:53N 36°52' W 076°20'3 7.7
2018-Apr-22 10:30N 36°51' W 076°18'0 0.6
2018-Apr-22 10:00N 36°50' W 076°18'4 7.6
2018-Apr-22 09:30N 36°47' W 076°18'3 5.6
2018-Apr-22 08:58N 36°44' W 076°16'1 2.1
2018-Apr-22 08:23N 36°43' W 076°15'0 0.0
2018-Apr-20 20:06N 36°43' W 076°14'0 3.0
2018-Apr-20 20:00N 36°43' W 076°14'0 0.8
2018-Apr-20 19:25N 36°43' W 076°15'3 5.8
2018-Apr-20 18:58N 36°45' W 076°18'2 4.5
2018-Apr-20 18:30N 36°47' W 076°18'2 3.1
2018-Apr-20 18:00N 36°45' W 076°18'0 0.2
2018-Apr-20 17:30N 36°45' W 076°18'0 1.0
2018-Apr-20 17:00N 36°45' W 076°18'0 0.0
2018-Apr-20 16:30N 36°45' W 076°18'0 0.0
2018-Apr-20 16:00N 36°45' W 076°18'0 0.0
2018-Apr-20 15:30N 36°45' W 076°18'0 0.0
2018-Apr-20 15:00N 36°45' W 076°18'0 0.0
2018-Apr-20 14:25N 36°45' W 076°18'0 0.0
2018-Apr-20 14:00N 36°45' W 076°18'0 0.0
2018-Apr-20 13:30N 36°45' W 076°18'0 0.1
2018-Apr-20 13:00N 36°45' W 076°18'0 0.0
2018-Apr-19 20:32N 36°45' W 076°18'0 0.0
2018-Apr-19 20:28N 36°45' W 076°18'2 4.5
2018-Apr-19 20:01N 36°47' W 076°18'3 6.6
2018-Apr-19 19:30N 36°50' W 076°18'3 5.8
2018-Apr-19 19:00N 36°52' W 076°20'2 4.6
2018-Apr-19 18:30N 36°51' W 076°18'3 7.0
2018-Apr-19 18:00N 36°47' W 076°18'3 2.3
2018-Apr-19 16:48N 36°45' W 076°18'2 6.2
2018-Apr-19 16:31N 36°44' W 076°16'  
Track history (hours):
 
Tides and Currents Weather Stations Pressure Air Temp Water Temp Dewpoint Dewpoint Depression Visibility Wind Speed Wind Dir Waves Ship Positions

Callsign WZW5960 (name unknown)

Owner: NORFOLK DREDGING CO, CHESAPEAKE, VA. More information available from US FCC via Universal Licensing System and Coast Guard Vessel Documentation Center.

Last reported at 2018-Apr-26 12:53 UTC. Time now 2018-Apr-26 23:01 UTC.
Position N 36°55' W 076°21'.

Length 20 m; draft 3 m.

Type: Tug. MMSI: 367473160.

Date/timePositionNaut miles runAvg speedWind from/ knotsBaromVisibWave heightAir tempDewpointWater temp
2018-Apr-26 12:53N 36°55' W 076°21'1 1.6
2018-Apr-26 12:31N 36°55' W 076°21'0 0.0
2018-Apr-26 12:01N 36°55' W 076°21'0 0.0
2018-Apr-26 11:25N 36°55' W 076°21'0 0.0
2018-Apr-26 10:59N 36°55' W 076°21'0 0.0
2018-Apr-25 21:54N 36°55' W 076°21'0 0.0
2018-Apr-25 21:02N 36°55' W 076°21'0 0.0
2018-Apr-25 20:59N 36°55' W 076°21'0 0.0
2018-Apr-25 20:29N 36°55' W 076°21'0 0.1
2018-Apr-25 16:10N 36°54' W 076°21'0 0.0
2018-Apr-25 16:00N 36°54' W 076°21'1 0.2
2018-Apr-25 11:21N 36°53' W 076°20'1 2.8
2018-Apr-25 10:58N 36°52' W 076°20'0 0.1
2018-Apr-25 10:30N 36°52' W 076°20'0 0.0
2018-Apr-24 19:32N 36°52' W 076°20'0 0.2
2018-Apr-24 19:29N 36°52' W 076°20'0 0.0
2018-Apr-24 19:00N 36°52' W 076°20'0 0.0
2018-Apr-24 18:29N 36°52' W 076°20'0 0.0
2018-Apr-24 17:56N 36°52' W 076°20'0 0.0
2018-Apr-24 17:17N 36°52' W 076°20'0 0.0
2018-Apr-24 17:00N 36°52' W 076°20'0 0.0
2018-Apr-24 16:30N 36°52' W 076°20'0 0.0
2018-Apr-24 16:00N 36°52' W 076°20'0 0.0
2018-Apr-24 15:30N 36°52' W 076°20'0 0.0
2018-Apr-24 15:00N 36°52' W 076°20'0 0.0
2018-Apr-24 14:28N 36°52' W 076°20'0 0.1
2018-Apr-24 13:57N 36°52' W 076°20'0 0.0
2018-Apr-24 13:30N 36°52' W 076°20'0 0.1
2018-Apr-24 12:59N 36°52' W 076°20'0 0.1
2018-Apr-24 12:30N 36°52' W 076°20'0 0.0
2018-Apr-24 12:00N 36°52' W 076°20'0 0.0
2018-Apr-24 11:30N 36°52' W 076°20'0 0.0
2018-Apr-24 10:37N 36°52' W 076°20'1 0.0
2018-Apr-23 19:06N 36°52' W 076°20'1 6.0
2018-Apr-23 18:56N 36°51' W 076°19'2 2.1
2018-Apr-23 18:02N 36°50' W 076°17'0 0.1
2018-Apr-23 12:45N 36°51' W 076°17'3 0.2
2018-Apr-22 20:34N 36°52' W 076°20'0 0.1
2018-Apr-22 20:12N 36°52' W 076°20'0 0.1
2018-Apr-22 20:00N 36°52' W 076°20'0 0.0
2018-Apr-22 18:19N 36°52' W 076°20'0 0.0
2018-Apr-22 18:00N 36°52' W 076°20'0 0.0
2018-Apr-22 17:25N 36°52' W 076°20'0 0.0
2018-Apr-22 17:00N 36°52' W 076°20'0 0.0
2018-Apr-22 16:30N 36°52' W 076°20'0 0.0
2018-Apr-22 16:00N 36°52' W 076°20'1 2.6
2018-Apr-22 15:28N 36°52' W 076°19'1 1.3
2018-Apr-22 14:24N 36°52' W 076°20'0 0.0
2018-Apr-22 11:59N 36°52' W 076°20'0 0.0
2018-Apr-22 11:20N 36°52' W 076°20'0 0.3
2018-Apr-22 10:53N 36°52' W 076°20'3 7.7
2018-Apr-22 10:30N 36°51' W 076°18'0 0.6
2018-Apr-22 10:00N 36°50' W 076°18'4 7.6
2018-Apr-22 09:30N 36°47' W 076°18'3 5.6
2018-Apr-22 08:58N 36°44' W 076°16'1 2.1
2018-Apr-22 08:23N 36°43' W 076°15'0 0.0
2018-Apr-20 20:06N 36°43' W 076°14'0 3.0
2018-Apr-20 20:00N 36°43' W 076°14'0 0.8
2018-Apr-20 19:25N 36°43' W 076°15'3 5.8
2018-Apr-20 18:58N 36°45' W 076°18'2 4.5
2018-Apr-20 18:30N 36°47' W 076°18'2 3.1
2018-Apr-20 18:00N 36°45' W 076°18'0 0.2
2018-Apr-20 17:30N 36°45' W 076°18'0 1.0
2018-Apr-20 17:00N 36°45' W 076°18'0 0.0
2018-Apr-20 16:30N 36°45' W 076°18'0 0.0
2018-Apr-20 16:00N 36°45' W 076°18'0 0.0
2018-Apr-20 15:30N 36°45' W 076°18'0 0.0
2018-Apr-20 15:00N 36°45' W 076°18'0 0.0
2018-Apr-20 14:25N 36°45' W 076°18'0 0.0
2018-Apr-20 14:00N 36°45' W 076°18'0 0.0
2018-Apr-20 13:30N 36°45' W 076°18'0 0.1
2018-Apr-20 13:00N 36°45' W 076°18'0 0.0
2018-Apr-19 20:32N 36°45' W 076°18'0 0.0
2018-Apr-19 20:28N 36°45' W 076°18'2 4.5
2018-Apr-19 20:01N 36°47' W 076°18'3 6.6
2018-Apr-19 19:30N 36°50' W 076°18'3 5.8
2018-Apr-19 19:00N 36°52' W 076°20'2 4.6
2018-Apr-19 18:30N 36°51' W 076°18'3 7.0
2018-Apr-19 18:00N 36°47' W 076°18'3 2.3
2018-Apr-19 16:48N 36°45' W 076°18'2 6.2
2018-Apr-19 16:31N 36°44' W 076°16'  

Dump ship's entire track history